Time;durP1;ratioP1;P1;durP2;ratioP2;P2;SDS_P1;SDS_P2;PMS_P1;PMS_P2;Temp;Humidity;BMP_temperature;BMP_pressure;BME280_temperature;BME280_humidity;BME280_pressure;Samples;Min_cycle;Max_cycle;Signal;HPM_P1;HPM_P2
2022/10/16 00:01:21;;;;;;;4.13;2.27;;;17.10;91.00;;;;;;5032147;28;20927;-70
2022/10/16 00:03:47;;;;;;;4.30;2.67;;;17.10;91.20;;;;;;5040388;28;20953;-70
2022/10/16 00:06:15;;;;;;;4.37;2.30;;;17.10;91.20;;;;;;5039353;28;20513;-71
2022/10/16 00:08:41;;;;;;;3.07;2.10;;;17.20;91.10;;;;;;5031693;28;20483;-71
2022/10/16 00:11:12;;;;;;;4.33;2.90;;;17.20;90.90;;;;;;5026006;28;20879;-70
2022/10/16 00:13:39;;;;;;;6.47;2.63;;;17.20;91.00;;;;;;5029521;28;20416;-70
2022/10/16 00:16:05;;;;;;;3.80;2.67;;;17.10;91.00;;;;;;5026026;28;20495;-71
2022/10/16 00:18:31;;;;;;;5.60;2.57;;;17.10;91.00;;;;;;5029563;28;20462;-70
2022/10/16 00:21:03;;;;;;;4.80;2.40;;;17.10;91.00;;;;;;5025447;28;20456;-70
2022/10/16 00:23:29;;;;;;;4.00;2.20;;;17.00;91.10;;;;;;5029237;28;20192;-69
2022/10/16 00:25:59;;;;;;;3.47;2.40;;;17.00;91.10;;;;;;5026752;28;20521;-71
2022/10/16 00:28:25;;;;;;;4.00;2.70;;;17.00;91.30;;;;;;5029201;28;20226;-70
2022/10/16 00:30:51;;;;;;;4.17;2.70;;;17.00;91.20;;;;;;5029293;28;20423;-72
2022/10/16 00:33:16;;;;;;;4.67;2.87;;;17.00;91.30;;;;;;5028501;28;20220;-70
2022/10/16 00:35:42;;;;;;;5.50;2.50;;;16.90;91.30;;;;;;5025222;28;20280;-70
2022/10/16 00:38:07;;;;;;;4.07;2.70;;;16.90;91.50;;;;;;5022864;28;20194;-69
2022/10/16 00:40:33;;;;;;;6.60;2.83;;;16.90;91.70;;;;;;5029330;28;20529;-70
2022/10/16 00:42:59;;;;;;;4.03;2.50;;;16.80;91.80;;;;;;5027235;28;20197;-70
2022/10/16 00:45:24;;;;;;;4.40;2.20;;;16.80;91.80;;;;;;5026320;28;20645;-72
2022/10/16 00:47:52;;;;;;;5.13;3.20;;;16.70;91.90;;;;;;5022531;28;20251;-70
2022/10/16 00:50:30;;;;;;;3.20;2.30;;;16.70;92.20;;;;;;5027775;28;20729;-70
2022/10/16 00:52:57;;;;;;;6.90;3.17;;;16.70;92.40;;;;;;5026028;28;20493;-71
2022/10/16 00:55:23;;;;;;;4.73;2.70;;;16.70;92.30;;;;;;5029269;28;20424;-70
2022/10/16 00:57:51;;;;;;;5.03;2.53;;;16.60;92.50;;;;;;5024703;28;21404;-70
2022/10/16 01:00:20;;;;;;;5.17;2.60;;;16.60;92.50;;;;;;5029352;28;20433;-69
2022/10/16 01:02:56;;;;;;;4.27;2.50;;;16.60;92.40;;;;;;5028395;28;20898;-69
2022/10/16 01:05:24;;;;;;;3.80;2.83;;;16.60;92.50;;;;;;5024241;28;20441;-69
2022/10/16 01:08:18;;;;;;;5.57;3.10;;;16.50;92.50;;;;;;5025645;28;21017;-70
2022/10/16 01:11:11;;;;;;;5.97;2.77;;;16.50;92.80;;;;;;5027023;28;20795;-69
2022/10/16 01:13:42;;;;;;;4.33;2.30;;;16.60;92.70;;;;;;5027138;28;20415;-69
2022/10/16 01:16:29;;;;;;;3.83;2.37;;;16.60;92.70;;;;;;5022015;28;20507;-69
2022/10/16 01:19:05;;;;;;;4.93;2.57;;;16.60;92.50;;;;;;5023495;28;20443;-71
2022/10/16 01:21:38;;;;;;;3.97;2.67;;;16.60;92.20;;;;;;5026889;28;20431;-70
2022/10/16 01:24:37;;;;;;;2.67;2.00;;;16.70;92.20;;;;;;5028870;28;20426;-69
2022/10/16 01:27:27;;;;;;;3.27;2.27;;;16.60;92.10;;;;;;5019835;28;20538;-69
2022/10/16 01:30:01;;;;;;;3.00;2.00;;;16.60;92.30;;;;;;5028040;28;20532;-72
2022/10/16 01:32:41;;;;;;;4.27;2.50;;;16.60;92.20;;;;;;5028475;28;20422;-70
2022/10/16 01:35:18;;;;;;;4.87;2.23;;;16.60;92.30;;;;;;5027021;28;20423;-69
2022/10/16 01:37:51;;;;;;;5.10;2.60;;;16.50;92.40;;;;;;5028575;28;20515;-69
2022/10/16 01:40:20;;;;;;;3.90;2.30;;;16.50;92.60;;;;;;5035048;28;20899;-70
2022/10/16 01:42:55;;;;;;;5.40;2.53;;;16.50;92.60;;;;;;5033463;28;20478;-69
2022/10/16 01:45:21;;;;;;;3.73;2.27;;;16.50;92.60;;;;;;5030637;28;20919;-70
2022/10/16 01:47:49;;;;;;;3.63;2.30;;;16.60;92.60;;;;;;5033500;28;20462;-72
2022/10/16 01:50:17;;;;;;;3.70;2.50;;;16.60;92.50;;;;;;5036038;28;20427;-72
2022/10/16 01:52:47;;;;;;;3.50;2.37;;;16.50;92.50;;;;;;5034004;28;20435;-70
2022/10/16 01:55:17;;;;;;;5.57;2.27;;;16.50;92.60;;;;;;5029785;28;20430;-70
2022/10/16 01:57:47;;;;;;;4.37;2.30;;;16.60;92.50;;;;;;5027633;28;20466;-70
2022/10/16 02:00:14;;;;;;;3.60;2.50;;;16.60;92.50;;;;;;5026076;28;20962;-72
2022/10/16 02:02:42;;;;;;;3.43;2.33;;;16.60;92.30;;;;;;5031605;28;20985;-70
2022/10/16 02:05:20;;;;;;;3.83;2.53;;;16.70;92.30;;;;;;5032560;28;20919;-72
2022/10/16 02:07:45;;;;;;;4.23;2.30;;;16.60;92.30;;;;;;5030187;28;20478;-71
2022/10/16 02:10:11;;;;;;;2.37;2.17;;;16.60;92.30;;;;;;5032459;28;20442;-71
2022/10/16 02:12:39;;;;;;;4.30;2.90;;;16.50;92.00;;;;;;5031738;28;20185;-71
2022/10/16 02:15:06;;;;;;;5.70;2.90;;;16.60;92.10;;;;;;5032262;28;20679;-70
2022/10/16 02:17:32;;;;;;;5.20;2.63;;;16.60;92.20;;;;;;5031537;28;20485;-72
2022/10/16 02:19:59;;;;;;;5.70;2.67;;;16.70;92.10;;;;;;5038115;28;20481;-71
2022/10/16 02:22:31;;;;;;;3.70;2.23;;;16.80;91.90;;;;;;5034068;28;20439;-71
2022/10/16 02:25:26;;;;;;;6.50;2.53;;;16.80;91.80;;;;;;5036122;28;20427;-72
2022/10/16 02:28:24;;;;;;;4.00;2.50;;;16.80;91.70;;;;;;5015550;28;20964;-71
2022/10/16 02:31:03;;;;;;;4.33;2.50;;;16.80;91.70;;;;;;5032315;28;20427;-69
2022/10/16 02:33:30;;;;;;;3.70;2.73;;;16.70;91.90;;;;;;5031918;28;20434;-68
2022/10/16 02:35:57;;;;;;;3.93;2.63;;;16.70;91.90;;;;;;5028559;28;20466;-69
2022/10/16 02:38:24;;;;;;;4.50;2.50;;;16.80;91.70;;;;;;5027456;28;20424;-69
2022/10/16 02:40:50;;;;;;;5.30;2.60;;;16.70;91.90;;;;;;5027198;28;20404;-69
2022/10/16 02:43:16;;;;;;;3.10;2.33;;;16.70;91.90;;;;;;5031864;28;20592;-68
2022/10/16 02:45:42;;;;;;;4.80;2.73;;;16.70;91.90;;;;;;5030001;28;20221;-69
2022/10/16 02:48:07;;;;;;;5.73;2.43;;;16.70;91.90;;;;;;5030100;28;20185;-70
2022/10/16 02:50:33;;;;;;;4.03;2.07;;;16.80;91.90;;;;;;5027152;28;20189;-70
2022/10/16 02:52:59;;;;;;;5.67;2.60;;;16.80;91.80;;;;;;5027775;28;20220;-70
2022/10/16 02:55:24;;;;;;;3.80;2.50;;;16.80;91.80;;;;;;5029413;28;20193;-68
2022/10/16 02:57:50;;;;;;;3.67;1.97;;;16.90;91.60;;;;;;5029054;28;20212;-71
2022/10/16 03:00:17;;;;;;;6.90;2.67;;;16.80;91.40;;;;;;5031715;28;20288;-70
2022/10/16 03:02:43;;;;;;;3.67;2.23;;;16.80;91.30;;;;;;5030372;28;20218;-71
2022/10/16 03:05:09;;;;;;;1.97;1.70;;;16.80;91.10;;;;;;5032255;28;20518;-70
2022/10/16 03:07:35;;;;;;;4.50;2.30;;;16.80;91.20;;;;;;5029389;28;20482;-69
2022/10/16 03:10:00;;;;;;;5.20;2.40;;;16.80;91.10;;;;;;5031965;28;20459;-70
2022/10/16 03:12:27;;;;;;;5.27;2.60;;;16.70;91.40;;;;;;5030300;28;20672;-71
2022/10/16 03:14:53;;;;;;;3.13;2.40;;;16.80;91.40;;;;;;5031413;28;20219;-71
2022/10/16 03:17:19;;;;;;;3.83;2.57;;;16.80;91.00;;;;;;5024641;28;20736;-71
2022/10/16 03:19:45;;;;;;;2.90;2.00;;;16.80;91.10;;;;;;5031299;28;20223;-69
2022/10/16 03:22:10;;;;;;;2.13;2.00;;;16.80;91.20;;;;;;5030740;28;20675;-70
2022/10/16 03:24:36;;;;;;;4.10;2.63;;;16.70;91.30;;;;;;5032828;28;20446;-72
2022/10/16 03:27:02;;;;;;;5.40;2.20;;;16.60;91.50;;;;;;5028716;28;20347;-70
2022/10/16 03:29:29;;;;;;;5.03;2.40;;;16.60;91.60;;;;;;5031183;28;20184;-70
2022/10/16 03:31:55;;;;;;;3.67;2.10;;;16.50;91.70;;;;;;5027436;28;20224;-72
2022/10/16 03:34:20;;;;;;;3.10;2.00;;;16.60;91.90;;;;;;5029294;28;20467;-71
2022/10/16 03:36:46;;;;;;;3.43;2.07;;;16.60;91.70;;;;;;5025001;28;20470;-71
2022/10/16 03:39:11;;;;;;;3.87;2.57;;;16.60;91.70;;;;;;5028561;28;20272;-72
2022/10/16 03:41:37;;;;;;;4.37;1.93;;;16.60;91.70;;;;;;5030232;28;20189;-69
2022/10/16 03:44:03;;;;;;;5.13;2.20;;;16.60;91.80;;;;;;5030643;28;20208;-71
2022/10/16 03:46:29;;;;;;;7.43;2.53;;;16.60;91.90;;;;;;5025993;28;20240;-69
2022/10/16 03:48:54;;;;;;;4.37;2.37;;;16.40;92.00;;;;;;5031680;28;20181;-70
2022/10/16 03:51:20;;;;;;;5.00;2.30;;;16.40;92.20;;;;;;5030214;28;20458;-70
2022/10/16 03:53:46;;;;;;;5.60;2.40;;;16.50;92.30;;;;;;5033293;28;20683;-71
2022/10/16 03:56:11;;;;;;;5.90;2.50;;;16.50;92.30;;;;;;5034690;28;20223;-70
2022/10/16 03:58:37;;;;;;;5.57;2.47;;;16.60;92.20;;;;;;5036197;28;20205;-69
2022/10/16 04:01:02;;;;;;;3.60;2.20;;;16.60;92.20;;;;;;5029725;28;20193;-71
2022/10/16 04:03:28;;;;;;;2.77;2.33;;;16.50;92.20;;;;;;5030708;28;20685;-70
2022/10/16 04:05:53;;;;;;;6.07;2.80;;;16.50;92.40;;;;;;5030685;28;20235;-71
2022/10/16 04:08:19;;;;;;;8.00;2.40;;;16.40;92.50;;;;;;5030963;28;20192;-68
2022/10/16 04:10:45;;;;;;;6.20;2.70;;;16.40;92.70;;;;;;5029115;28;20541;-69
2022/10/16 04:13:11;;;;;;;6.43;2.57;;;16.40;92.80;;;;;;5031061;28;20560;-70
2022/10/16 04:15:37;;;;;;;3.53;2.43;;;16.40;92.80;;;;;;5029731;28;20769;-70
2022/10/16 04:18:04;;;;;;;3.57;2.10;;;16.30;92.80;;;;;;5029402;28;20449;-70
2022/10/16 04:20:29;;;;;;;2.83;2.13;;;16.30;92.80;;;;;;5027427;28;20189;-71
2022/10/16 04:22:55;;;;;;;2.67;2.10;;;16.20;92.90;;;;;;5026570;28;20957;-68
2022/10/16 04:25:21;;;;;;;3.10;2.47;;;16.20;92.90;;;;;;5030408;28;20426;-70
2022/10/16 04:27:46;;;;;;;3.43;2.17;;;16.20;92.90;;;;;;5026712;28;20680;-70
2022/10/16 04:30:13;;;;;;;3.80;2.53;;;16.20;92.90;;;;;;5029575;28;20552;-70
2022/10/16 04:32:38;;;;;;;3.93;2.07;;;16.30;92.70;;;;;;5028944;28;20265;-71
2022/10/16 04:35:04;;;;;;;6.47;2.40;;;16.30;92.60;;;;;;5029225;28;20987;-69
2022/10/16 04:37:30;;;;;;;3.90;2.13;;;16.30;92.70;;;;;;5021790;28;20213;-71
2022/10/16 04:39:55;;;;;;;4.67;2.07;;;16.30;92.80;;;;;;5029290;28;20477;-69
2022/10/16 04:42:21;;;;;;;3.87;2.30;;;16.30;92.70;;;;;;5028532;28;20200;-69
2022/10/16 04:44:47;;;;;;;3.00;2.53;;;16.30;92.60;;;;;;5027230;28;20197;-70
2022/10/16 04:47:13;;;;;;;6.27;2.23;;;16.30;92.70;;;;;;5023426;28;20471;-69
2022/10/16 04:49:38;;;;;;;5.73;2.10;;;16.30;92.90;;;;;;5029134;28;20657;-71
2022/10/16 04:52:04;;;;;;;4.63;2.40;;;16.30;92.90;;;;;;5029090;28;20224;-70
2022/10/16 04:54:30;;;;;;;3.40;2.40;;;16.20;92.90;;;;;;5026759;28;20185;-69
2022/10/16 04:56:55;;;;;;;4.30;2.00;;;16.20;93.00;;;;;;5023150;28;20208;-70
2022/10/16 04:59:22;;;;;;;4.17;2.23;;;16.20;93.00;;;;;;5026083;28;20287;-72
2022/10/16 05:01:47;;;;;;;10.03;2.70;;;16.30;92.70;;;;;;5024628;28;20196;-70
2022/10/16 05:04:14;;;;;;;5.43;2.77;;;16.40;92.40;;;;;;5028953;28;20434;-71
2022/10/16 05:06:41;;;;;;;4.30;2.43;;;16.40;92.30;;;;;;5026780;28;20699;-70
2022/10/16 05:09:07;;;;;;;3.40;2.40;;;16.20;92.50;;;;;;5028872;28;20439;-69
2022/10/16 05:11:33;;;;;;;4.50;2.30;;;16.30;92.60;;;;;;5028747;28;20556;-70
2022/10/16 05:13:59;;;;;;;4.97;2.20;;;16.20;92.60;;;;;;5028399;28;20499;-69
2022/10/16 05:16:25;;;;;;;2.73;2.03;;;16.20;92.70;;;;;;5023488;28;20606;-71
2022/10/16 05:18:54;;;;;;;4.30;2.50;;;16.10;92.80;;;;;;5028568;28;20435;-69
2022/10/16 05:21:20;;;;;;;9.37;2.77;;;16.20;93.00;;;;;;5029135;28;20287;-69
2022/10/16 05:23:46;;;;;;;2.30;1.87;;;16.20;93.00;;;;;;5028912;28;20442;-69
2022/10/16 05:26:11;;;;;;;3.70;2.23;;;16.20;92.90;;;;;;5025572;28;20550;-69
2022/10/16 05:28:37;;;;;;;8.13;2.30;;;16.20;93.10;;;;;;5028582;28;20672;-70
2022/10/16 05:31:07;;;;;;;8.63;2.67;;;16.20;93.10;;;;;;5028947;28;20185;-71
2022/10/16 05:33:33;;;;;;;4.07;2.37;;;16.20;93.10;;;;;;5028807;28;20258;-69
2022/10/16 05:36:04;;;;;;;2.93;2.03;;;16.20;93.10;;;;;;5027002;28;20506;-70
2022/10/16 05:38:29;;;;;;;5.30;2.20;;;16.20;93.20;;;;;;5030852;28;20439;-68
2022/10/16 05:40:56;;;;;;;5.90;2.50;;;16.10;93.10;;;;;;5032115;28;20432;-70
2022/10/16 05:43:21;;;;;;;3.57;2.30;;;16.20;93.10;;;;;;5029152;28;20190;-70
2022/10/16 05:45:55;;;;;;;6.13;3.20;;;16.10;93.10;;;;;;5026702;28;20505;-71
2022/10/16 05:48:20;;;;;;;5.10;2.40;;;16.00;93.20;;;;;;5029675;28;20247;-71
2022/10/16 05:50:46;;;;;;;4.00;2.50;;;16.10;93.40;;;;;;5032320;28;20438;-71
2022/10/16 05:53:11;;;;;;;5.57;2.73;;;16.10;93.30;;;;;;5029213;28;20188;-69
2022/10/16 05:55:37;;;;;;;5.43;2.50;;;16.00;93.40;;;;;;5026759;28;20187;-71
2022/10/16 05:58:02;;;;;;;5.40;2.80;;;16.00;93.60;;;;;;5027210;28;20185;-71
2022/10/16 06:00:28;;;;;;;6.43;2.50;;;16.00;93.60;;;;;;5028842;28;20268;-70
2022/10/16 06:02:54;;;;;;;7.97;2.90;;;16.00;93.70;;;;;;5028822;28;20184;-69
2022/10/16 06:05:19;;;;;;;4.87;2.67;;;16.00;93.70;;;;;;5029083;28;20195;-71
2022/10/16 06:07:45;;;;;;;4.73;2.60;;;16.00;93.70;;;;;;5022228;28;20212;-71
2022/10/16 06:10:10;;;;;;;11.60;2.67;;;16.10;93.60;;;;;;5029153;28;20271;-70
2022/10/16 06:12:36;;;;;;;5.90;2.60;;;16.10;93.60;;;;;;5028788;28;20207;-69
2022/10/16 06:15:01;;;;;;;3.70;2.40;;;16.20;93.50;;;;;;5030483;28;20185;-70
2022/10/16 06:17:27;;;;;;;4.27;2.70;;;16.20;93.40;;;;;;5025024;28;20266;-70
2022/10/16 06:19:52;;;;;;;4.30;2.60;;;16.20;93.40;;;;;;5030559;28;20193;-72
2022/10/16 06:22:18;;;;;;;4.17;2.80;;;16.30;93.20;;;;;;5032891;28;20185;-71
2022/10/16 06:24:44;;;;;;;5.77;2.53;;;16.30;93.10;;;;;;5032775;28;20189;-70
2022/10/16 06:27:09;;;;;;;5.97;3.90;;;16.30;93.10;;;;;;5027093;28;20353;-69
2022/10/16 06:29:35;;;;;;;5.80;3.77;;;16.30;93.00;;;;;;5031122;28;20223;-72
2022/10/16 06:32:00;;;;;;;10.57;4.10;;;16.20;93.20;;;;;;5030740;28;20222;-72
2022/10/16 06:34:26;;;;;;;6.57;3.60;;;16.30;93.30;;;;;;5032347;28;20181;-70
2022/10/16 06:36:51;;;;;;;9.13;4.30;;;16.40;93.20;;;;;;5022819;28;20777;-71
2022/10/16 06:39:17;;;;;;;16.90;8.60;;;16.40;93.10;;;;;;5031703;28;20615;-71
2022/10/16 06:41:42;;;;;;;13.17;6.20;;;16.40;92.90;;;;;;5030750;28;20243;-71
2022/10/16 06:44:08;;;;;;;7.60;4.70;;;16.40;93.10;;;;;;5031582;28;20189;-71
2022/10/16 06:46:34;;;;;;;14.00;7.80;;;16.50;93.10;;;;;;5024862;28;20212;-71
2022/10/16 06:49:00;;;;;;;12.57;6.60;;;16.50;92.90;;;;;;5032114;28;20177;-70
2022/10/16 06:51:26;;;;;;;10.20;6.30;;;16.50;92.90;;;;;;5025809;28;20514;-71
2022/10/16 06:53:58;;;;;;;11.60;5.83;;;16.50;92.80;;;;;;5031368;28;20430;-69
2022/10/16 06:56:26;;;;;;;12.57;6.10;;;16.60;93.00;;;;;;5027384;28;20599;-69
2022/10/16 06:58:52;;;;;;;18.50;5.23;;;16.60;92.90;;;;;;5030172;28;20561;-71
2022/10/16 07:01:19;;;;;;;9.17;5.23;;;16.50;92.80;;;;;;5032626;28;20469;-69
2022/10/16 07:03:46;;;;;;;14.03;6.80;;;16.60;92.90;;;;;;5035516;28;20444;-71
2022/10/16 07:06:15;;;;;;;12.37;6.30;;;16.60;92.60;;;;;;5030568;28;20577;-70
2022/10/16 07:08:43;;;;;;;9.67;6.00;;;16.70;92.60;;;;;;5029296;28;20427;-71
2022/10/16 07:11:11;;;;;;;7.80;4.80;;;16.80;92.60;;;;;;5029026;28;20435;-70
2022/10/16 07:13:38;;;;;;;9.73;5.20;;;17.00;92.50;;;;;;5027656;28;20459;-69
2022/10/16 07:16:10;;;;;;;11.00;5.53;;;17.00;92.30;;;;;;5024622;28;20539;-71
2022/10/16 07:18:38;;;;;;;6.50;4.33;;;16.90;91.80;;;;;;5028304;28;20915;-71
2022/10/16 07:21:12;;;;;;;15.80;5.03;;;17.00;92.00;;;;;;5028744;28;20425;-69
2022/10/16 07:23:38;;;;;;;8.17;4.90;;;17.00;91.80;;;;;;5027129;28;20415;-73
2022/10/16 07:26:05;;;;;;;10.63;4.70;;;17.10;91.70;;;;;;5022635;28;21193;-71
2022/10/16 07:28:31;;;;;;;5.77;3.50;;;17.10;91.50;;;;;;5024916;28;20189;-72
2022/10/16 07:31:05;;;;;;;6.37;4.10;;;16.90;91.40;;;;;;5027005;28;20432;-72
2022/10/16 07:33:31;;;;;;;7.07;3.57;;;17.00;91.80;;;;;;5028624;28;20436;-71
2022/10/16 07:35:57;;;;;;;8.10;3.57;;;17.00;91.60;;;;;;5028206;28;20483;-72
2022/10/16 07:38:23;;;;;;;8.83;4.27;;;17.10;91.70;;;;;;5030425;28;21839;-72
2022/10/16 07:40:56;;;;;;;5.10;3.20;;;17.10;91.70;;;;;;5030047;28;20235;-70
2022/10/16 07:43:21;;;;;;;9.83;4.17;;;17.10;91.40;;;;;;5030122;28;20299;-70
2022/10/16 07:45:49;;;;;;;7.13;3.97;;;17.10;91.50;;;;;;5028317;28;20450;-70
2022/10/16 07:48:15;;;;;;;9.63;4.00;;;17.20;91.40;;;;;;5030174;28;20255;-70
2022/10/16 07:50:41;;;;;;;4.60;2.97;;;17.20;91.10;;;;;;5033474;28;20435;-71
2022/10/16 07:53:07;;;;;;;15.27;3.67;;;17.30;90.80;;;;;;5025723;28;20428;-70
2022/10/16 07:55:32;;;;;;;5.47;2.90;;;17.50;90.60;;;;;;5027078;28;20431;-70
2022/10/16 07:57:58;;;;;;;6.53;3.53;;;17.40;90.10;;;;;;5021898;28;20674;-70
2022/10/16 08:00:23;;;;;;;7.27;3.67;;;17.40;90.10;;;;;;5024669;28;20185;-71
2022/10/16 08:02:49;;;;;;;9.30;3.77;;;17.50;90.30;;;;;;5028057;28;20201;-72
2022/10/16 08:05:14;;;;;;;7.63;3.40;;;17.70;89.70;;;;;;5028194;28;20185;-70
2022/10/16 08:07:40;;;;;;;4.93;2.73;;;17.60;88.70;;;;;;5022517;28;20652;-71
2022/10/16 08:10:06;;;;;;;5.63;3.40;;;17.70;89.00;;;;;;5028934;28;20196;-71
2022/10/16 08:12:31;;;;;;;8.13;3.80;;;17.90;88.30;;;;;;5023115;28;20213;-69
2022/10/16 08:14:57;;;;;;;5.30;2.50;;;17.80;87.80;;;;;;5028654;28;20484;-72
2022/10/16 08:17:23;;;;;;;9.97;3.43;;;18.00;88.10;;;;;;5025514;28;20255;-71
2022/10/16 08:19:48;;;;;;;5.43;3.33;;;18.20;87.70;;;;;;5028809;28;20199;-71
2022/10/16 08:22:14;;;;;;;7.00;3.20;;;18.40;86.90;;;;;;5028283;28;20216;-70
2022/10/16 08:24:40;;;;;;;4.67;3.00;;;18.60;86.60;;;;;;5028845;28;20694;-69
2022/10/16 08:27:06;;;;;;;4.33;2.93;;;18.60;86.00;;;;;;5025129;28;20560;-71
2022/10/16 08:29:32;;;;;;;5.40;3.40;;;18.70;85.90;;;;;;5026429;28;20503;-70
2022/10/16 08:31:58;;;;;;;6.57;3.20;;;18.70;85.50;;;;;;5025468;28;20200;-72
2022/10/16 08:34:24;;;;;;;4.40;3.20;;;18.80;85.50;;;;;;5029458;28;20211;-71
2022/10/16 08:36:49;;;;;;;6.10;3.10;;;18.90;84.00;;;;;;5021495;28;20481;-73
2022/10/16 08:39:16;;;;;;;3.90;2.80;;;18.90;83.10;;;;;;5029636;28;20963;-70
2022/10/16 08:42:25;;;;;;;3.83;2.63;;;19.20;82.70;;;;;;5027271;28;20720;-73
2022/10/16 08:44:53;;;;;;;4.33;2.50;;;19.30;80.80;;;;;;5027085;28;20432;-72
2022/10/16 08:47:19;;;;;;;4.50;2.73;;;19.20;80.80;;;;;;5023138;28;21231;-72
2022/10/16 08:50:11;;;;;;;4.90;2.30;;;19.20;81.20;;;;;;5027250;28;20440;-72
2022/10/16 08:52:41;;;;;;;5.00;2.63;;;19.20;80.80;;;;;;5029418;28;20199;-74
2022/10/16 08:55:19;;;;;;;3.90;2.87;;;19.10;80.50;;;;;;5032248;28;20488;-74
2022/10/16 08:57:44;;;;;;;7.37;2.80;;;19.10;80.80;;;;;;5024622;28;20469;-71
2022/10/16 09:00:14;;;;;;;3.80;2.93;;;19.20;80.00;;;;;;5027926;28;20432;-72
2022/10/16 09:03:26;;;;;;;7.67;2.83;;;19.20;80.20;;;;;;5024088;28;20203;-73
2022/10/16 09:06:26;;;;;;;4.17;2.30;;;19.20;80.00;;;;;;5017745;28;20466;-73
2022/10/16 09:09:28;;;;;;;4.30;2.27;;;19.30;79.70;;;;;;5026870;28;20430;-72
2022/10/16 09:12:15;;;;;;;2.70;2.10;;;19.40;79.20;;;;;;5027751;28;20430;-72
2022/10/16 09:15:32;;;;;;;4.97;2.70;;;19.60;78.70;;;;;;5028239;28;20518;-72
2022/10/16 09:18:03;;;;;;;3.43;1.93;;;19.60;77.60;;;;;;4946209;29;20459;-73
2022/10/16 09:20:53;;;;;;;2.50;1.90;;;19.80;73.90;;;;;;4952623;28;20440;-73
2022/10/16 09:23:37;;;;;;;2.43;1.87;;;20.00;72.40;;;;;;4952686;28;20446;-71
2022/10/16 09:26:06;;;;;;;3.50;1.83;;;20.30;71.40;;;;;;4944028;28;20571;-70
2022/10/16 09:28:31;;;;;;;6.47;1.90;;;20.30;72.10;;;;;;4946778;29;20575;-71
2022/10/16 09:30:57;;;;;;;2.93;2.00;;;20.30;72.40;;;;;;4951525;28;20420;-71
2022/10/16 09:33:29;;;;;;;3.40;2.27;;;20.30;72.70;;;;;;4952630;28;20665;-71
2022/10/16 09:35:58;;;;;;;2.90;1.90;;;20.30;73.50;;;;;;4951390;28;20266;-71
2022/10/16 09:38:30;;;;;;;6.13;1.97;;;20.30;73.70;;;;;;4950642;29;20420;-71
2022/10/16 09:41:00;;;;;;;5.43;2.30;;;20.30;73.30;;;;;;4950845;29;20845;-72
2022/10/16 09:43:28;;;;;;;4.37;2.20;;;20.30;74.00;;;;;;4955296;28;20427;-73
2022/10/16 09:46:08;;;;;;;2.90;1.93;;;20.30;73.50;;;;;;4946288;28;20478;-71
2022/10/16 09:48:43;;;;;;;5.53;2.40;;;20.40;73.00;;;;;;4951213;29;20825;-73
2022/10/16 09:51:30;;;;;;;2.23;1.93;;;20.40;73.30;;;;;;4956282;28;20434;-72
2022/10/16 09:54:09;;;;;;;3.73;2.10;;;20.40;73.20;;;;;;4987693;28;20533;-72
2022/10/16 09:56:38;;;;;;;5.70;2.00;;;20.50;73.00;;;;;;5026624;28;20456;-72
2022/10/16 09:59:10;;;;;;;2.20;1.80;;;20.70;72.70;;;;;;5034452;28;20431;-73
2022/10/16 10:01:39;;;;;;;3.33;2.10;;;20.90;72.30;;;;;;5029889;28;20451;-71
2022/10/16 10:04:05;;;;;;;6.60;2.30;;;21.00;71.80;;;;;;5033111;28;20409;-71
2022/10/16 10:06:54;;;;;;;2.87;1.90;;;21.10;71.60;;;;;;5030424;28;20483;-73
2022/10/16 10:09:24;;;;;;;5.07;2.03;;;21.20;71.70;;;;;;5029947;28;20417;-72
2022/10/16 10:11:59;;;;;;;3.83;2.30;;;21.30;71.10;;;;;;5024391;28;20507;-72
2022/10/16 10:14:43;;;;;;;2.67;2.17;;;21.40;71.40;;;;;;5032393;28;20448;-74
2022/10/16 10:17:18;;;;;;;4.93;2.37;;;21.50;71.40;;;;;;5023906;28;20511;-73
2022/10/16 10:19:46;;;;;;;5.23;2.23;;;21.60;70.80;;;;;;5029215;28;20875;-74
2022/10/16 10:22:45;;;;;;;3.80;2.77;;;21.70;69.70;;;;;;5031708;28;20430;-74
2022/10/16 10:25:11;;;;;;;2.90;2.00;;;21.80;69.20;;;;;;5025921;28;20949;-74
2022/10/16 10:27:57;;;;;;;3.80;2.47;;;21.90;69.20;;;;;;5020706;28;20481;-72
2022/10/16 10:30:41;;;;;;;4.60;2.60;;;22.10;68.50;;;;;;5031673;28;20188;-72
2022/10/16 10:33:16;;;;;;;4.93;2.40;;;22.30;68.30;;;;;;5020873;28;20458;-72
2022/10/16 10:35:45;;;;;;;3.33;2.10;;;22.50;67.70;;;;;;5029749;28;20437;-71
2022/10/16 10:38:29;;;;;;;6.33;2.30;;;22.80;67.60;;;;;;5025247;28;20427;-72
2022/10/16 10:41:33;;;;;;;4.63;2.47;;;23.10;67.00;;;;;;5029215;28;20793;-74
2022/10/16 10:44:24;;;;;;;4.20;1.90;;;23.30;65.80;;;;;;4985478;28;20941;-73
2022/10/16 10:46:56;;;;;;;3.00;2.03;;;23.60;65.10;;;;;;4987187;28;20535;-73
2022/10/16 10:49:38;;;;;;;5.00;2.90;;;23.50;65.70;;;;;;4988364;28;21223;-73
2022/10/16 10:52:12;;;;;;;6.07;3.27;;;23.50;66.00;;;;;;4982065;28;20494;-72
2022/10/16 10:54:49;;;;;;;8.10;3.00;;;23.40;67.30;;;;;;4988471;28;20981;-72
2022/10/16 10:57:38;;;;;;;3.77;2.53;;;23.30;68.60;;;;;;4985670;28;20464;-71
2022/10/16 11:00:17;;;;;;;4.40;2.60;;;23.70;68.60;;;;;;4989225;28;20426;-73
2022/10/16 11:03:27;;;;;;;3.13;2.50;;;24.30;67.30;;;;;;4985588;28;20427;-73
2022/10/16 11:06:02;;;;;;;3.70;2.50;;;24.30;66.90;;;;;;4930845;29;20464;-72
2022/10/16 11:08:52;;;;;;;6.43;3.00;;;24.40;66.70;;;;;;4933301;29;20468;-73
2022/10/16 11:11:34;;;;;;;4.90;3.10;;;23.90;66.00;;;;;;4936443;29;20434;-72
2022/10/16 11:14:14;;;;;;;4.47;2.60;;;23.60;67.00;;;;;;4938765;28;20432;-72
2022/10/16 11:16:49;;;;;;;5.53;2.53;;;23.60;67.20;;;;;;4960321;28;20492;-68
2022/10/16 11:19:27;;;;;;;3.00;2.40;;;23.30;68.60;;;;;;4962101;28;20434;-71
2022/10/16 11:22:18;;;;;;;4.40;2.70;;;23.10;69.80;;;;;;4962664;28;20476;-71
2022/10/16 11:24:59;;;;;;;4.20;2.70;;;23.50;68.60;;;;;;4949256;28;20812;-71
2022/10/16 11:28:09;;;;;;;4.53;2.60;;;23.80;68.30;;;;;;4967521;28;20482;-70
2022/10/16 11:30:46;;;;;;;4.10;2.77;;;24.30;68.30;;;;;;4961270;28;20432;-72
2022/10/16 11:33:31;;;;;;;4.67;2.60;;;24.50;66.00;;;;;;4964099;28;20821;-72
2022/10/16 11:36:15;;;;;;;7.40;2.13;;;23.90;67.20;;;;;;4958895;28;20454;-71
2022/10/16 11:38:57;;;;;;;5.67;2.70;;;23.20;69.20;;;;;;4964365;28;20432;-71
2022/10/16 11:41:44;;;;;;;4.90;2.63;;;23.30;69.80;;;;;;4978223;28;20451;-72
2022/10/16 11:44:34;;;;;;;5.50;2.67;;;23.50;69.20;;;;;;5025716;28;20964;-72
2022/10/16 11:47:27;;;;;;;4.40;2.40;;;23.40;69.10;;;;;;5025916;28;20538;-73
2022/10/16 11:49:59;;;;;;;4.83;3.00;;;23.40;69.40;;;;;;5030803;28;20467;-71
2022/10/16 11:52:41;;;;;;;4.43;2.30;;;23.80;68.50;;;;;;5030908;28;20423;-72
2022/10/16 11:55:17;;;;;;;4.80;2.40;;;24.20;66.70;;;;;;5028617;28;20908;-72
2022/10/16 11:58:06;;;;;;;6.33;3.40;;;24.80;66.90;;;;;;5024466;28;21138;-71
2022/10/16 12:00:43;;;;;;;3.73;2.50;;;25.60;63.70;;;;;;5027585;28;20435;-69
2022/10/16 12:03:21;;;;;;;6.33;2.40;;;25.90;60.70;;;;;;5030453;28;20452;-72
2022/10/16 12:06:28;;;;;;;5.30;2.13;;;25.90;60.70;;;;;;5028402;28;20839;-70
2022/10/16 12:08:56;;;;;;;10.20;2.57;;;26.00;57.70;;;;;;5021609;28;20440;-75
2022/10/16 12:11:27;;;;;;;4.00;2.80;;;25.60;58.20;;;;;;5022497;28;21069;-70
2022/10/16 12:14:07;;;;;;;2.70;2.17;;;25.40;59.30;;;;;;5026668;28;20430;-71
2022/10/16 12:16:32;;;;;;;3.30;2.00;;;25.00;60.60;;;;;;5028539;28;20462;-71
2022/10/16 12:19:14;;;;;;;2.97;2.23;;;25.60;58.90;;;;;;5030698;28;20930;-72
2022/10/16 12:21:41;;;;;;;2.50;2.00;;;25.50;58.20;;;;;;5030124;28;20193;-70
2022/10/16 12:24:19;;;;;;;13.03;2.77;;;25.70;59.20;;;;;;5030010;28;20423;-71
2022/10/16 12:26:52;;;;;;;2.40;2.03;;;26.60;57.70;;;;;;5040536;28;20500;-71
2022/10/16 12:29:28;;;;;;;3.07;2.10;;;27.00;56.80;;;;;;5026065;28;20518;-72
2022/10/16 12:31:54;;;;;;;2.47;1.90;;;27.50;53.60;;;;;;5025281;28;20442;-71
2022/10/16 12:34:42;;;;;;;3.70;2.13;;;26.70;55.00;;;;;;5029613;28;20422;-71
2022/10/16 12:37:10;;;;;;;3.13;2.10;;;26.80;54.40;;;;;;5024642;28;20676;-70
2022/10/16 12:39:37;;;;;;;3.60;1.90;;;26.50;55.20;;;;;;5029501;28;20518;-71
2022/10/16 12:42:22;;;;;;;2.73;2.23;;;27.00;54.20;;;;;;5028890;28;20465;-70
2022/10/16 12:44:48;;;;;;;4.80;2.40;;;26.50;56.00;;;;;;5029965;28;20426;-71
2022/10/16 12:47:37;;;;;;;4.03;2.70;;;25.60;58.80;;;;;;5025195;28;20481;-70
2022/10/16 12:50:22;;;;;;;3.43;2.83;;;25.80;58.40;;;;;;5029270;28;20422;-72
2022/10/16 12:52:48;;;;;;;4.50;3.00;;;25.70;58.80;;;;;;5030679;28;20430;-72
2022/10/16 12:55:19;;;;;;;6.43;2.63;;;25.80;58.90;;;;;;5030532;28;20422;-71
2022/10/16 12:58:18;;;;;;;4.70;2.50;;;26.00;57.70;;;;;;5029443;28;20218;-71
2022/10/16 13:00:57;;;;;;;4.90;2.93;;;25.30;60.00;;;;;;5031071;28;20859;-71
2022/10/16 13:03:32;;;;;;;5.30;2.63;;;25.00;60.40;;;;;;5030787;28;20492;-70
2022/10/16 13:06:06;;;;;;;3.63;2.37;;;24.80;61.30;;;;;;5027845;28;20965;-70
2022/10/16 13:08:46;;;;;;;3.60;2.63;;;24.40;62.60;;;;;;5028583;28;20953;-71